createdAt,value
2019-05-02T00:00:15.105Z,852.39
2019-05-02T00:01:14.978Z,852.38
2019-05-02T00:02:14.846Z,852.37
2019-05-02T00:03:14.715Z,852.37
2019-05-02T00:04:19.951Z,852.36
2019-05-02T00:05:14.457Z,852.31
2019-05-02T00:06:14.325Z,852.30
2019-05-02T00:07:19.705Z,852.33
2019-05-02T00:08:14.066Z,852.31
2019-05-02T00:09:13.937Z,852.30
2019-05-02T00:10:13.804Z,852.28
2019-05-02T00:11:13.678Z,852.26
2019-05-02T00:12:13.547Z,852.24
2019-05-02T00:13:13.416Z,852.23
2019-05-02T00:14:13.284Z,852.25
2019-05-02T00:15:13.157Z,852.25
2019-05-02T00:16:14.038Z,852.22
2019-05-02T00:17:12.920Z,852.20
2019-05-02T00:18:12.768Z,852.18
2019-05-02T00:19:14.048Z,852.18
2019-05-02T00:20:12.503Z,852.16
2019-05-02T00:21:12.377Z,852.13
2019-05-02T00:22:17.000Z,852.12
2019-05-02T00:23:12.110Z,852.11
2019-05-02T00:24:11.980Z,852.11
2019-05-02T00:25:15.942Z,852.10
2019-05-02T00:26:11.723Z,852.09
2019-05-02T00:27:11.591Z,852.06
2019-05-02T00:28:12.366Z,852.05
2019-05-02T00:29:11.328Z,852.05
2019-05-02T00:30:11.199Z,852.02
2019-05-02T00:31:11.627Z,852.02
2019-05-02T00:32:10.939Z,852.01
2019-05-02T00:33:10.808Z,852.03
2019-05-02T00:34:10.678Z,852.02
2019-05-02T00:35:10.548Z,852.03
2019-05-02T00:36:10.418Z,852.02
2019-05-02T00:37:10.287Z,852.03
2019-05-02T00:38:10.156Z,852.03
2019-05-02T00:39:13.935Z,851.99
2019-05-02T00:40:09.896Z,852.00
2019-05-02T00:41:09.767Z,851.99
2019-05-02T00:42:12.949Z,852.00
2019-05-02T00:43:09.502Z,851.99
2019-05-02T00:44:10.946Z,852.02
2019-05-02T00:45:09.243Z,852.01
2019-05-02T00:46:09.135Z,852.04
2019-05-02T00:47:10.886Z,851.99
2019-05-02T00:48:08.852Z,852.00
2019-05-02T00:49:08.721Z,852.00
2019-05-02T00:50:11.175Z,852.00
2019-05-02T00:51:08.460Z,852.01
2019-05-02T00:52:08.331Z,851.98
2019-05-02T00:53:11.993Z,851.96
2019-05-02T00:54:08.069Z,851.98
2019-05-02T00:55:07.940Z,851.94
2019-05-02T00:56:09.179Z,851.98
2019-05-02T00:57:07.679Z,851.89
2019-05-02T00:58:07.547Z,851.91
2019-05-02T00:59:08.654Z,851.91
2019-05-02T01:00:07.289Z,851.88
2019-05-02T01:01:07.157Z,851.85
2019-05-02T01:02:07.248Z,851.86
2019-05-02T01:03:11.154Z,851.87
2019-05-02T01:04:06.766Z,851.88
2019-05-02T01:05:06.637Z,851.88
2019-05-02T01:06:13.631Z,851.88
2019-05-02T01:07:06.375Z,851.88
2019-05-02T01:08:06.247Z,851.87
2019-05-02T01:09:11.084Z,851.85
2019-05-02T01:10:05.986Z,851.89
2019-05-02T01:11:05.856Z,851.92
2019-05-02T01:12:08.273Z,851.89
2019-05-02T01:13:05.596Z,851.88
2019-05-02T01:14:05.466Z,851.82
2019-05-02T01:15:08.400Z,851.87
2019-05-02T01:16:05.203Z,851.86
2019-05-02T01:17:05.073Z,851.87
2019-05-02T01:18:06.047Z,851.84
2019-05-02T01:19:04.811Z,851.85
2019-05-02T01:20:04.681Z,851.84
2019-05-02T01:21:04.557Z,851.84
2019-05-02T01:22:04.427Z,851.85
2019-05-02T01:23:04.294Z,851.84
2019-05-02T01:24:04.397Z,851.85
2019-05-02T01:25:04.031Z,851.82
2019-05-02T01:26:03.906Z,851.85
2019-05-02T01:27:04.502Z,851.87
2019-05-02T01:28:03.639Z,851.86
2019-05-02T01:29:03.508Z,851.86
2019-05-02T01:30:05.998Z,851.84
2019-05-02T01:31:03.251Z,851.80
2019-05-02T01:32:03.117Z,851.81
2019-05-02T01:33:06.355Z,851.79
2019-05-02T01:34:02.856Z,851.79
2019-05-02T01:35:02.724Z,851.79
2019-05-02T01:36:06.393Z,851.79
2019-05-02T01:37:02.473Z,851.75
2019-05-02T01:38:02.333Z,851.78
2019-05-02T01:39:02.890Z,851.76
2019-05-02T01:40:02.084Z,851.77
2019-05-02T01:41:01.943Z,851.78
2019-05-02T01:42:04.161Z,851.75
2019-05-02T01:43:01.686Z,851.75
2019-05-02T01:44:01.700Z,851.74
2019-05-02T01:45:01.422Z,851.75
2019-05-02T01:46:01.304Z,851.79
2019-05-02T01:47:01.160Z,851.78
2019-05-02T01:48:05.024Z,851.75
2019-05-02T01:49:00.902Z,851.80
2019-05-02T01:50:00.769Z,851.78
2019-05-02T01:51:04.351Z,851.76
2019-05-02T01:52:00.509Z,851.74
2019-05-02T01:53:00.378Z,851.78
2019-05-02T01:54:00.253Z,851.78
2019-05-02T01:55:00.114Z,851.76
2019-05-02T01:55:59.984Z,851.76
2019-05-02T01:57:03.985Z,851.74
2019-05-02T01:57:59.725Z,851.75
2019-05-02T01:58:59.600Z,851.75
2019-05-02T01:59:59.466Z,851.71
2019-05-02T02:00:59.337Z,851.70
2019-05-02T02:01:59.249Z,851.71
2019-05-02T02:02:59.071Z,851.73
2019-05-02T02:03:58.945Z,851.68
2019-05-02T02:04:58.811Z,851.70
2019-05-02T02:06:02.901Z,851.70
2019-05-02T02:06:58.550Z,851.69
2019-05-02T02:07:58.426Z,851.73
2019-05-02T02:08:58.291Z,851.68
2019-05-02T02:09:58.157Z,851.68
2019-05-02T02:10:58.356Z,851.74
2019-05-02T02:11:57.897Z,851.75
2019-05-02T02:13:04.813Z,851.74
2019-05-02T02:13:57.707Z,851.76
2019-05-02T02:14:57.506Z,851.76
2019-05-02T02:16:00.218Z,851.75
2019-05-02T02:16:57.243Z,851.78
2019-05-02T02:17:57.113Z,851.77
2019-05-02T02:18:58.953Z,851.76
2019-05-02T02:19:56.851Z,851.74
2019-05-02T02:20:56.722Z,851.79
2019-05-02T02:21:57.559Z,851.78
2019-05-02T02:22:56.465Z,851.78
2019-05-02T02:23:56.332Z,851.78
2019-05-02T02:25:00.957Z,851.76
2019-05-02T02:25:56.067Z,851.80
2019-05-02T02:26:55.939Z,851.81
2019-05-02T02:27:59.666Z,851.76
2019-05-02T02:28:55.678Z,851.74
2019-05-02T02:29:55.544Z,851.74
2019-05-02T02:30:57.834Z,851.72
2019-05-02T02:31:55.287Z,851.73
2019-05-02T02:33:00.598Z,851.73
2019-05-02T02:33:55.024Z,851.74
2019-05-02T02:34:54.895Z,851.76
2019-05-02T02:35:54.771Z,851.73
2019-05-02T02:36:54.634Z,851.76
2019-05-02T02:37:55.676Z,851.75
2019-05-02T02:38:54.372Z,851.73
2019-05-02T02:39:56.278Z,851.72
2019-05-02T02:40:54.115Z,851.68
2019-05-02T02:41:54.289Z,851.66
2019-05-02T02:42:53.852Z,851.64
2019-05-02T02:43:54.721Z,851.61
2019-05-02T02:44:53.597Z,851.63
2019-05-02T02:45:57.670Z,851.64
2019-05-02T02:46:53.329Z,851.66
2019-05-02T02:47:59.938Z,851.63
2019-05-02T02:48:53.065Z,851.63
2019-05-02T02:49:55.879Z,851.64
2019-05-02T02:50:52.804Z,851.65
2019-05-02T02:51:58.200Z,851.64
2019-05-02T02:52:52.541Z,851.65
2019-05-02T02:54:02.862Z,851.62
2019-05-02T02:54:52.281Z,851.67
2019-05-02T02:56:01.169Z,851.62
2019-05-02T02:56:52.020Z,851.63
2019-05-02T02:57:51.887Z,851.62
2019-05-02T02:58:51.757Z,851.61
2019-05-02T02:59:51.632Z,851.58
2019-05-02T03:00:51.498Z,851.57
2019-05-02T03:01:51.363Z,851.59
2019-05-02T03:02:51.261Z,851.55
2019-05-02T03:03:51.104Z,851.55
2019-05-02T03:04:50.980Z,851.55
2019-05-02T03:05:50.841Z,851.53
2019-05-02T03:06:50.712Z,851.54
2019-05-02T03:07:50.588Z,851.55
2019-05-02T03:08:50.451Z,851.55
2019-05-02T03:09:50.318Z,851.54
2019-05-02T03:10:50.189Z,851.51
2019-05-02T03:11:50.057Z,851.57
2019-05-02T03:12:49.928Z,851.54
2019-05-02T03:13:53.136Z,851.54
2019-05-02T03:14:49.669Z,851.54
2019-05-02T03:15:49.536Z,851.55
2019-05-02T03:16:49.720Z,851.60
2019-05-02T03:17:49.287Z,851.57
2019-05-02T03:18:49.142Z,851.53
2019-05-02T03:19:54.212Z,851.55
2019-05-02T03:20:48.893Z,851.53
2019-05-02T03:21:54.321Z,851.55
2019-05-02T03:22:48.620Z,851.54
2019-05-02T03:23:48.492Z,851.50
2019-05-02T03:24:48.362Z,851.50
2019-05-02T03:25:51.166Z,851.49
2019-05-02T03:26:48.754Z,851.49
2019-05-02T03:27:48.851Z,851.45
2019-05-02T03:28:57.666Z,851.44
2019-05-02T03:29:47.708Z,851.44
2019-05-02T03:30:47.577Z,851.45
2019-05-02T03:31:47.446Z,851.44
2019-05-02T03:33:02.741Z,851.43
2019-05-02T03:33:54.749Z,851.40
2019-05-02T03:34:52.207Z,851.41
2019-05-02T03:35:48.990Z,851.41
2019-05-02T03:36:46.792Z,851.40
2019-05-02T03:37:51.279Z,851.37
2019-05-02T03:38:46.529Z,851.39
2019-05-02T03:39:49.403Z,851.36
2019-05-02T03:40:46.266Z,851.37
2019-05-02T03:41:46.137Z,851.38
2019-05-02T03:42:47.700Z,851.35
2019-05-02T03:43:45.875Z,851.33
2019-05-02T03:44:54.918Z,851.36
2019-05-02T03:45:45.623Z,851.37
2019-05-02T03:46:47.093Z,851.36
2019-05-02T03:47:46.598Z,851.39
2019-05-02T03:48:45.220Z,851.39
2019-05-02T03:49:49.000Z,851.37
2019-05-02T03:50:44.961Z,851.34
2019-05-02T03:51:44.830Z,851.34
2019-05-02T03:52:46.480Z,851.33
2019-05-02T03:53:44.566Z,851.29
2019-05-02T03:54:49.967Z,851.28
2019-05-02T03:55:44.305Z,851.28
2019-05-02T03:56:51.083Z,851.30
2019-05-02T03:57:44.043Z,851.30
2019-05-02T03:58:48.628Z,851.29
2019-05-02T03:59:43.782Z,851.35
2019-05-02T04:00:43.650Z,851.29
2019-05-02T04:01:43.519Z,851.26
2019-05-02T04:02:43.393Z,851.27
2019-05-02T04:03:43.763Z,851.27
2019-05-02T04:04:43.133Z,851.28
2019-05-02T04:05:42.998Z,851.29
2019-05-02T04:06:42.863Z,851.27
2019-05-02T04:07:42.736Z,851.26
2019-05-02T04:08:42.604Z,851.27
2019-05-02T04:09:42.833Z,851.26
2019-05-02T04:10:42.342Z,851.25
2019-05-02T04:11:42.213Z,851.24
2019-05-02T04:12:42.085Z,851.25
2019-05-02T04:13:41.952Z,851.26
2019-05-02T04:14:41.820Z,851.25
2019-05-02T04:15:41.688Z,851.27
2019-05-02T04:16:41.560Z,851.26
2019-05-02T04:17:41.425Z,851.28
2019-05-02T04:18:41.296Z,851.25
2019-05-02T04:19:41.177Z,851.26
2019-05-02T04:20:43.666Z,851.26
2019-05-02T04:21:40.903Z,851.24
2019-05-02T04:22:42.727Z,851.26
2019-05-02T04:23:40.648Z,851.26
2019-05-02T04:24:40.512Z,851.25
2019-05-02T04:25:40.880Z,851.27
2019-05-02T04:26:52.585Z,851.24
2019-05-02T04:27:40.119Z,851.28
2019-05-02T04:28:45.463Z,851.28
2019-05-02T04:29:39.860Z,851.28
2019-05-02T04:30:45.178Z,851.30
2019-05-02T04:31:39.604Z,851.27
2019-05-02T04:32:42.958Z,851.28
2019-05-02T04:33:39.345Z,851.24
2019-05-02T04:34:39.205Z,851.24
2019-05-02T04:35:40.604Z,851.21
2019-05-02T04:36:38.949Z,851.25
2019-05-02T04:37:41.313Z,851.23
2019-05-02T04:38:46.907Z,851.24
2019-05-02T04:39:39.240Z,851.24
2019-05-02T04:40:44.245Z,851.27
2019-05-02T04:41:39.275Z,851.27
2019-05-02T04:42:39.274Z,851.24
2019-05-02T04:43:40.607Z,851.23
2019-05-02T04:44:46.379Z,851.25
2019-05-02T04:45:51.720Z,851.26
2019-05-02T04:46:38.753Z,851.27
2019-05-02T04:47:39.046Z,851.26
2019-05-02T04:48:43.802Z,851.26
2019-05-02T04:49:39.344Z,851.24
2019-05-02T04:50:37.901Z,851.28
2019-05-02T04:51:38.161Z,851.29
2019-05-02T04:52:38.394Z,851.32
2019-05-02T04:53:42.205Z,851.26
2019-05-02T04:54:38.845Z,851.30
2019-05-02T04:55:38.100Z,851.30
2019-05-02T04:56:42.217Z,851.33
2019-05-02T04:57:44.178Z,851.28
2019-05-02T04:58:39.725Z,851.31
2019-05-02T04:59:35.938Z,851.32
2019-05-02T05:00:38.980Z,851.31
2019-05-02T05:01:43.562Z,851.34
2019-05-02T05:02:39.314Z,851.33
2019-05-02T05:03:37.510Z,851.33
2019-05-02T05:04:42.726Z,851.31
2019-05-02T05:05:37.704Z,851.29
2019-05-02T05:06:35.027Z,851.32
2019-05-02T05:07:43.618Z,851.31
2019-05-02T05:08:34.768Z,851.29
2019-05-02T05:09:34.635Z,851.33
2019-05-02T05:10:41.486Z,851.27
2019-05-02T05:11:34.387Z,851.33
2019-05-02T05:12:38.041Z,851.26
2019-05-02T05:13:34.116Z,851.28
2019-05-02T05:14:39.100Z,851.26
2019-05-02T05:15:41.221Z,851.31
2019-05-02T05:16:33.728Z,851.31
2019-05-02T05:17:34.248Z,851.32
2019-05-02T05:18:33.467Z,851.28
2019-05-02T05:19:33.337Z,851.33
2019-05-02T05:20:33.208Z,851.31
2019-05-02T05:21:33.090Z,851.34
2019-05-02T05:22:36.464Z,851.35
2019-05-02T05:23:32.887Z,851.38
2019-05-02T05:24:37.559Z,851.38
2019-05-02T05:25:32.564Z,851.38
2019-05-02T05:26:33.821Z,851.33
2019-05-02T05:27:32.303Z,851.33
2019-05-02T05:28:35.168Z,851.30
2019-05-02T05:29:32.044Z,851.29
2019-05-02T05:30:31.915Z,851.31
2019-05-02T05:31:31.787Z,851.32
2019-05-02T05:32:31.657Z,851.32
2019-05-02T05:33:31.527Z,851.36
2019-05-02T05:34:32.769Z,851.36
2019-05-02T05:35:31.271Z,851.37
2019-05-02T05:36:33.984Z,851.38
2019-05-02T05:37:31.012Z,851.38
2019-05-02T05:38:33.333Z,851.37
2019-05-02T05:39:30.756Z,851.35
2019-05-02T05:40:32.045Z,851.32
2019-05-02T05:41:30.499Z,851.37
2019-05-02T05:42:33.462Z,851.36
2019-05-02T05:43:30.246Z,851.34
2019-05-02T05:44:32.655Z,851.31
2019-05-02T05:45:29.982Z,851.32
2019-05-02T05:46:33.277Z,851.28
2019-05-02T05:47:29.727Z,851.29
2019-05-02T05:48:32.118Z,851.29
2019-05-02T05:49:29.470Z,851.31
2019-05-02T05:50:32.111Z,851.31
2019-05-02T05:51:29.214Z,851.30
2019-05-02T05:52:32.938Z,851.32
2019-05-02T05:53:28.957Z,851.32
2019-05-02T05:54:32.911Z,851.32
2019-05-02T05:55:31.538Z,851.26
2019-05-02T05:56:32.386Z,851.27
2019-05-02T05:57:28.439Z,851.31
2019-05-02T05:58:28.491Z,851.29
2019-05-02T05:59:32.027Z,851.26
2019-05-02T06:00:28.057Z,851.26
2019-05-02T06:01:33.914Z,851.26
2019-05-02T06:02:28.405Z,851.27
2019-05-02T06:03:27.855Z,851.27
2019-05-02T06:04:31.106Z,851.29
2019-05-02T06:05:27.689Z,851.22
2019-05-02T06:06:27.559Z,851.23
2019-05-02T06:07:27.758Z,851.20
2019-05-02T06:08:27.032Z,851.26
2019-05-02T06:09:31.256Z,851.22
2019-05-02T06:10:26.775Z,851.25
2019-05-02T06:11:26.649Z,851.26
2019-05-02T06:12:30.395Z,851.21
2019-05-02T06:13:26.403Z,851.23
2019-05-02T06:14:26.480Z,851.17
2019-05-02T06:15:26.137Z,851.16
2019-05-02T06:16:26.011Z,851.14
2019-05-02T06:17:28.404Z,851.19
2019-05-02T06:18:28.265Z,851.15
2019-05-02T06:19:25.627Z,851.13
2019-05-02T06:20:30.237Z,851.17
2019-05-02T06:21:25.375Z,851.17
2019-05-02T06:22:25.659Z,851.19
2019-05-02T06:23:25.118Z,851.17
2019-05-02T06:24:24.994Z,851.14
2019-05-02T06:25:33.785Z,851.18
2019-05-02T06:26:24.739Z,851.16
2019-05-02T06:27:26.040Z,851.17
2019-05-02T06:28:24.485Z,851.16
2019-05-02T06:29:24.356Z,851.14
2019-05-02T06:30:27.106Z,851.13
2019-05-02T06:31:24.104Z,851.14
2019-05-02T06:32:23.976Z,851.16
2019-05-02T06:33:25.833Z,851.13
2019-05-02T06:34:23.721Z,851.14
2019-05-02T06:35:23.600Z,851.10
2019-05-02T06:36:23.469Z,851.10
2019-05-02T06:37:23.341Z,851.12
2019-05-02T06:38:23.216Z,851.14
2019-05-02T06:39:27.032Z,851.10
2019-05-02T06:40:22.960Z,851.12
2019-05-02T06:41:22.838Z,851.10
2019-05-02T06:42:22.708Z,851.11
2019-05-02T06:43:22.582Z,851.09
2019-05-02T06:44:23.862Z,851.07
2019-05-02T06:45:22.336Z,851.10
2019-05-02T06:46:27.616Z,851.10
2019-05-02T06:47:22.075Z,851.09
2019-05-02T06:48:21.963Z,851.09
2019-05-02T06:49:24.298Z,851.08
2019-05-02T06:50:24.623Z,851.04
2019-05-02T06:51:21.567Z,851.05
2019-05-02T06:52:21.441Z,851.04
2019-05-02T06:53:21.319Z,851.01
2019-05-02T06:54:22.892Z,850.97
2019-05-02T06:55:21.074Z,850.99
2019-05-02T06:56:20.935Z,850.98
2019-05-02T06:57:24.093Z,850.97
2019-05-02T06:58:20.685Z,850.96
2019-05-02T06:59:20.554Z,850.94
2019-05-02T07:00:20.430Z,850.96
2019-05-02T07:01:21.209Z,850.96
2019-05-02T07:02:20.176Z,850.95
2019-05-02T07:03:20.051Z,850.93
2019-05-02T07:04:23.092Z,850.91
2019-05-02T07:05:19.795Z,850.89
2019-05-02T07:06:19.805Z,850.90
2019-05-02T07:07:19.674Z,850.87
2019-05-02T07:08:19.518Z,850.85
2019-05-02T07:09:19.344Z,850.84
2019-05-02T07:10:20.025Z,850.81
2019-05-02T07:11:19.039Z,850.85
2019-05-02T07:12:18.912Z,850.79
2019-05-02T07:13:18.785Z,850.77
2019-05-02T07:14:23.252Z,850.80
2019-05-02T07:15:18.603Z,850.79
2019-05-02T07:16:37.207Z,850.78
2019-05-02T07:17:18.282Z,850.73
2019-05-02T07:18:18.157Z,850.72
2019-05-02T07:19:21.863Z,850.69
2019-05-02T07:20:17.905Z,850.72
2019-05-02T07:21:22.962Z,850.69
2019-05-02T07:22:17.652Z,850.66
2019-05-02T07:23:18.382Z,850.71
2019-05-02T07:24:17.400Z,850.65
2019-05-02T07:25:17.275Z,850.68
2019-05-02T07:26:21.111Z,850.67
2019-05-02T07:27:17.026Z,850.68
2019-05-02T07:28:16.898Z,850.68
2019-05-02T07:29:17.135Z,850.66
2019-05-02T07:30:16.647Z,850.67
2019-05-02T07:31:16.523Z,850.66
2019-05-02T07:32:19.365Z,850.66
2019-05-02T07:33:16.272Z,850.69
2019-05-02T07:34:16.148Z,850.71
2019-05-02T07:35:19.369Z,850.71
2019-05-02T07:36:15.896Z,850.70
2019-05-02T07:37:15.772Z,850.69
2019-05-02T07:38:15.646Z,850.72
2019-05-02T07:39:15.529Z,850.69
2019-05-02T07:40:16.854Z,850.67
2019-05-02T07:41:15.271Z,850.64
2019-05-02T07:42:15.146Z,850.65
2019-05-02T07:43:21.067Z,850.65
2019-05-02T07:44:14.899Z,850.65
2019-05-02T07:45:14.772Z,850.62
2019-05-02T07:46:16.321Z,850.64
2019-05-02T07:47:14.528Z,850.64
2019-05-02T07:48:17.885Z,850.64
2019-05-02T07:49:14.993Z,850.66
2019-05-02T07:50:14.150Z,850.64
2019-05-02T07:51:17.176Z,850.63
2019-05-02T07:52:13.901Z,850.67
2019-05-02T07:53:14.327Z,850.62
2019-05-02T07:54:13.650Z,850.65
2019-05-02T07:55:13.528Z,850.63
2019-05-02T07:56:17.651Z,850.64
2019-05-02T07:57:13.277Z,850.65
2019-05-02T07:58:13.157Z,850.65
2019-05-02T07:59:13.029Z,850.63
2019-05-02T08:00:12.905Z,850.61
2019-05-02T08:01:13.520Z,850.61
2019-05-02T08:02:12.657Z,850.62
2019-05-02T08:03:12.532Z,850.61
2019-05-02T08:04:13.014Z,850.62
2019-05-02T08:05:15.617Z,850.62
2019-05-02T08:06:12.160Z,850.61
2019-05-02T08:07:16.200Z,850.60
2019-05-02T08:08:11.913Z,850.60
2019-05-02T08:09:11.786Z,850.56
2019-05-02T08:10:16.176Z,850.55
2019-05-02T08:11:11.546Z,850.59
2019-05-02T08:12:11.415Z,850.55
2019-05-02T08:13:12.101Z,850.55
2019-05-02T08:14:11.169Z,850.54
2019-05-02T08:15:13.332Z,850.49
2019-05-02T08:16:10.922Z,850.52
2019-05-02T08:17:16.777Z,850.53
2019-05-02T08:18:10.991Z,850.51
2019-05-02T08:19:10.550Z,850.52
2019-05-02T08:20:13.556Z,850.52
2019-05-02T08:21:10.301Z,850.54
2019-05-02T08:22:13.449Z,850.50
2019-05-02T08:23:10.057Z,850.50
2019-05-02T08:24:09.933Z,850.50
2019-05-02T08:25:10.731Z,850.47
2019-05-02T08:26:09.685Z,850.43
2019-05-02T08:27:09.561Z,850.52
2019-05-02T08:28:10.038Z,850.48
2019-05-02T08:29:09.313Z,850.47
2019-05-02T08:30:09.189Z,850.47
2019-05-02T08:31:13.588Z,850.43
2019-05-02T08:32:08.943Z,850.47
2019-05-02T08:33:08.820Z,850.47
2019-05-02T08:34:14.720Z,850.43
2019-05-02T08:35:08.576Z,850.43
2019-05-02T08:36:08.451Z,850.42
2019-05-02T08:37:08.339Z,850.45
2019-05-02T08:38:12.496Z,850.44
2019-05-02T08:39:08.080Z,850.43
2019-05-02T08:40:10.642Z,850.42
2019-05-02T08:41:07.832Z,850.43
2019-05-02T08:42:07.714Z,850.43
2019-05-02T08:43:08.957Z,850.38
2019-05-02T08:44:07.467Z,850.39
2019-05-02T08:45:07.344Z,850.41
2019-05-02T08:46:09.354Z,850.35
2019-05-02T08:47:18.412Z,850.35
2019-05-02T08:48:06.974Z,850.33
2019-05-02T08:49:06.855Z,850.36
2019-05-02T08:50:07.832Z,850.32
2019-05-02T08:51:06.610Z,850.34
2019-05-02T08:52:06.484Z,850.28
2019-05-02T08:53:06.363Z,850.30
2019-05-02T08:54:06.239Z,850.32
2019-05-02T08:55:09.702Z,850.29
2019-05-02T08:56:05.998Z,850.28
2019-05-02T08:57:05.876Z,850.24
2019-05-02T08:58:06.645Z,850.23
2019-05-02T08:59:05.630Z,850.24
2019-05-02T09:00:05.510Z,850.25
2019-05-02T09:01:09.206Z,850.23
2019-05-02T09:02:05.264Z,850.24
2019-05-02T09:03:05.140Z,850.20
2019-05-02T09:04:05.021Z,850.21
2019-05-02T09:05:05.982Z,850.19
2019-05-02T09:06:06.210Z,850.16
2019-05-02T09:07:04.682Z,850.17
2019-05-02T09:08:04.534Z,850.13
2019-05-02T09:09:04.410Z,850.11
2019-05-02T09:10:05.910Z,850.16
2019-05-02T09:11:04.163Z,850.15
2019-05-02T09:12:12.191Z,850.16
2019-05-02T09:13:03.918Z,850.13
2019-05-02T09:14:03.796Z,850.16
2019-05-02T09:15:03.673Z,850.15
2019-05-02T09:16:05.828Z,850.12
2019-05-02T09:17:08.861Z,850.14
2019-05-02T09:18:03.308Z,850.19
2019-05-02T09:19:03.189Z,850.16
2019-05-02T09:20:10.311Z,850.15
2019-05-02T09:21:02.941Z,850.10
2019-05-02T09:22:07.484Z,850.12
2019-05-02T09:23:02.696Z,850.09
2019-05-02T09:24:02.654Z,850.09
2019-05-02T09:25:02.455Z,850.07
2019-05-02T09:26:02.688Z,850.11
2019-05-02T09:27:02.554Z,850.07
2019-05-02T09:28:02.089Z,850.12
2019-05-02T09:29:05.411Z,850.08
2019-05-02T09:30:02.720Z,850.09
2019-05-02T09:31:05.114Z,850.14
2019-05-02T09:32:02.200Z,850.06
2019-05-02T09:33:02.830Z,850.08
2019-05-02T09:34:02.723Z,850.13
2019-05-02T09:35:04.891Z,850.11
2019-05-02T09:36:02.407Z,850.06
2019-05-02T09:37:02.719Z,850.02
2019-05-02T09:38:01.753Z,850.03
2019-05-02T09:39:02.520Z,850.00
2019-05-02T09:40:02.182Z,850.00
2019-05-02T09:41:13.819Z,850.00
2019-05-02T09:42:02.157Z,849.99
2019-05-02T09:43:02.738Z,849.96
2019-05-02T09:44:00.136Z,849.98
2019-05-02T09:45:00.013Z,849.98
2019-05-02T09:45:59.890Z,849.95
2019-05-02T09:46:59.780Z,849.93
2019-05-02T09:48:05.165Z,849.97
2019-05-02T09:49:04.316Z,849.93
2019-05-02T09:49:59.403Z,849.93
2019-05-02T09:51:04.563Z,849.91
2019-05-02T09:52:00.868Z,849.95
2019-05-02T09:52:59.033Z,849.86
2019-05-02T09:54:02.607Z,849.83
2019-05-02T09:54:58.790Z,849.81
2019-05-02T09:55:58.669Z,849.79
2019-05-02T09:56:58.545Z,849.82
2019-05-02T09:57:58.425Z,849.84
2019-05-02T09:59:06.298Z,849.84
2019-05-02T09:59:58.179Z,849.80
2019-05-02T10:00:58.055Z,849.81
2019-05-02T10:01:57.940Z,849.81
2019-05-02T10:02:57.816Z,849.76
2019-05-02T10:03:57.702Z,849.73
2019-05-02T10:04:57.573Z,849.71
2019-05-02T10:05:57.452Z,849.72
2019-05-02T10:06:57.325Z,849.67
2019-05-02T10:08:01.873Z,849.70
2019-05-02T10:08:57.094Z,849.68
2019-05-02T10:09:57.715Z,849.72
2019-05-02T10:10:56.840Z,849.70
2019-05-02T10:11:56.733Z,849.68
2019-05-02T10:12:56.606Z,849.66
2019-05-02T10:13:56.498Z,849.65
2019-05-02T10:14:57.010Z,849.67
2019-05-02T10:15:56.245Z,849.64
2019-05-02T10:16:57.652Z,849.70
2019-05-02T10:18:07.922Z,849.66
2019-05-02T10:18:55.873Z,849.62
2019-05-02T10:19:57.302Z,849.59
2019-05-02T10:20:55.628Z,849.56
2019-05-02T10:21:56.455Z,849.63
2019-05-02T10:22:55.389Z,849.57
2019-05-02T10:23:59.252Z,849.53
2019-05-02T10:24:55.147Z,849.58
2019-05-02T10:25:55.051Z,849.50
2019-05-02T10:27:03.215Z,849.51
2019-05-02T10:27:54.793Z,849.57
2019-05-02T10:28:54.664Z,849.53
2019-05-02T10:29:57.089Z,849.51
2019-05-02T10:30:56.695Z,849.57
2019-05-02T10:31:54.307Z,849.55
2019-05-02T10:32:57.295Z,849.56
2019-05-02T10:33:54.064Z,849.55
2019-05-02T10:34:56.783Z,849.50
2019-05-02T10:35:53.824Z,849.50
2019-05-02T10:36:58.697Z,849.51
2019-05-02T10:37:53.588Z,849.52
2019-05-02T10:38:58.865Z,849.45
2019-05-02T10:39:55.815Z,849.50
2019-05-02T10:40:59.307Z,849.48
2019-05-02T10:41:53.103Z,849.45
2019-05-02T10:42:52.982Z,849.39
2019-05-02T10:43:56.667Z,849.38
2019-05-02T10:44:52.739Z,849.44
2019-05-02T10:45:56.374Z,849.40
2019-05-02T10:46:52.501Z,849.41
2019-05-02T10:47:52.801Z,849.37
2019-05-02T10:48:52.598Z,849.38
2019-05-02T10:49:52.724Z,849.29
2019-05-02T10:50:52.570Z,849.33
2019-05-02T10:51:53.743Z,849.31
2019-05-02T10:52:52.721Z,849.20
2019-05-02T10:53:55.207Z,849.33
2019-05-02T10:54:52.836Z,849.32
2019-05-02T10:55:52.301Z,849.35
2019-05-02T10:56:51.808Z,849.37
2019-05-02T10:57:52.734Z,849.38
2019-05-02T10:58:52.306Z,849.34
2019-05-02T10:59:52.540Z,849.33
2019-05-02T11:00:52.279Z,849.29
2019-05-02T11:01:52.183Z,849.25
2019-05-02T11:02:52.281Z,849.29
2019-05-02T11:03:51.662Z,849.27
2019-05-02T11:04:52.334Z,849.18
2019-05-02T11:05:50.220Z,849.20
2019-05-02T11:06:51.789Z,849.27
2019-05-02T11:07:52.147Z,849.22
2019-05-02T11:08:49.866Z,849.24
2019-05-02T11:09:49.743Z,849.31
2019-05-02T11:10:49.622Z,849.22
2019-05-02T11:11:49.506Z,849.22
2019-05-02T11:12:49.398Z,849.23
2019-05-02T11:13:54.468Z,849.22
2019-05-02T11:14:49.149Z,849.28
2019-05-02T11:15:49.038Z,849.27
2019-05-02T11:16:48.906Z,849.26
2019-05-02T11:17:48.782Z,849.30
2019-05-02T11:18:48.663Z,849.20
2019-05-02T11:19:48.541Z,849.20
2019-05-02T11:20:48.421Z,849.22
2019-05-02T11:21:56.317Z,849.13
2019-05-02T11:22:48.179Z,849.24
2019-05-02T11:23:48.129Z,849.25
2019-05-02T11:24:47.937Z,849.27
2019-05-02T11:25:47.816Z,849.26
2019-05-02T11:26:47.697Z,849.28
2019-05-02T11:27:47.574Z,849.22
2019-05-02T11:28:47.451Z,849.22
2019-05-02T11:29:47.339Z,849.23
2019-05-02T11:30:47.218Z,849.20
2019-05-02T11:31:47.093Z,849.22
2019-05-02T11:32:46.964Z,849.24
2019-05-02T11:33:46.844Z,849.24
2019-05-02T11:34:46.722Z,849.13
2019-05-02T11:35:48.940Z,849.18
2019-05-02T11:36:46.483Z,849.29
2019-05-02T11:37:46.358Z,849.24
2019-05-02T11:38:52.999Z,849.23
2019-05-02T11:39:52.034Z,849.22
2019-05-02T11:40:45.988Z,849.18
2019-05-02T11:41:45.868Z,849.16
2019-05-02T11:42:45.746Z,849.14
2019-05-02T11:43:45.626Z,849.10
2019-05-02T11:44:45.499Z,849.11
2019-05-02T11:45:45.379Z,849.10
2019-05-02T11:46:46.860Z,849.06
2019-05-02T11:47:45.133Z,849.07
2019-05-02T11:48:55.422Z,849.04
2019-05-02T11:49:46.891Z,849.01
2019-05-02T11:50:44.768Z,849.06
2019-05-02T11:51:47.165Z,849.06
2019-05-02T11:52:44.522Z,849.08
2019-05-02T11:53:44.399Z,849.04
2019-05-02T11:54:48.309Z,849.07
2019-05-02T11:55:44.156Z,849.06
2019-05-02T11:56:49.045Z,849.08
2019-05-02T11:57:43.911Z,849.12
2019-05-02T11:58:48.078Z,849.08
2019-05-02T11:59:43.666Z,849.04
2019-05-02T12:00:45.442Z,849.02
2019-05-02T12:01:56.530Z,849.04
2019-05-02T12:02:43.294Z,849.00
2019-05-02T12:03:43.171Z,848.99
2019-05-02T12:04:47.245Z,849.02
2019-05-02T12:05:42.928Z,849.00
2019-05-02T12:06:42.805Z,848.97
2019-05-02T12:07:42.682Z,848.97
2019-05-02T12:08:47.702Z,849.04
2019-05-02T12:09:44.277Z,849.02
2019-05-02T12:10:42.469Z,848.99
2019-05-02T12:11:43.050Z,848.97
2019-05-02T12:12:42.984Z,849.01
2019-05-02T12:13:42.761Z,848.97
2019-05-02T12:14:41.928Z,849.00
2019-05-02T12:15:44.339Z,848.96
2019-05-02T12:16:43.093Z,848.94
2019-05-02T12:17:41.969Z,848.97
2019-05-02T12:18:41.907Z,848.95
2019-05-02T12:19:42.567Z,848.96
2019-05-02T12:20:42.581Z,848.98
2019-05-02T12:21:41.977Z,848.94
2019-05-02T12:22:41.968Z,848.98
2019-05-02T12:23:41.796Z,848.97
2019-05-02T12:24:43.859Z,848.98
2019-05-02T12:25:42.155Z,848.97
2019-05-02T12:26:41.939Z,848.96